Time;durP1;ratioP1;P1;durP2;ratioP2;P2;SDS_P1;SDS_P2;PMS_P1;PMS_P2;Temp;Humidity;BMP_temperature;BMP_pressure;BME280_temperature;BME280_humidity;BME280_pressure;Samples;Min_cycle;Max_cycle;Signal;HPM_P1;HPM_P2
2020/12/21 00:01:45;;;;;;;8.95;2.78;;;7.80;99.90;;;;;;5067679;28;20056;-64
2020/12/21 00:04:12;;;;;;;9.93;2.67;;;7.80;99.90;;;;;;5066521;28;20417;-63
2020/12/21 00:06:42;;;;;;;7.75;2.70;;;7.80;99.90;;;;;;5068165;28;20048;-63
2020/12/21 00:09:08;;;;;;;;;;;7.80;99.90;;;;;;5067189;28;20071;-63
2020/12/21 00:11:37;;;;;;;10.05;2.80;;;7.80;99.90;;;;;;5066639;28;19936;-63
2020/12/21 00:14:04;;;;;;;6.60;2.83;;;7.70;99.90;;;;;;5066562;28;20052;-64
2020/12/21 00:16:41;;;;;;;7.93;2.50;;;7.70;99.90;;;;;;5067214;28;20053;-63
2020/12/21 00:19:09;;;;;;;8.68;3.10;;;7.70;99.90;;;;;;5066496;28;20044;-63
2020/12/21 00:21:36;;;;;;;8.48;2.08;;;7.60;99.90;;;;;;5067070;28;21787;-63
2020/12/21 00:24:06;;;;;;;7.93;2.35;;;7.60;99.90;;;;;;5067296;28;20084;-63
2020/12/21 00:26:33;;;;;;;10.50;2.65;;;7.60;99.90;;;;;;5066277;28;21299;-63
2020/12/21 00:29:00;;;;;;;11.57;2.42;;;7.60;99.90;;;;;;5067863;28;20080;-63
2020/12/21 00:31:28;;;;;;;8.77;2.20;;;7.60;99.90;;;;;;5067723;28;20056;-63
2020/12/21 00:33:55;;;;;;;8.60;3.08;;;7.60;99.90;;;;;;5066064;28;20111;-63
2020/12/21 00:36:22;;;;;;;10.05;2.53;;;7.60;99.90;;;;;;5067151;28;20129;-63
2020/12/21 00:38:50;;;;;;;9.93;2.58;;;7.60;99.90;;;;;;5068018;28;20382;-63
2020/12/21 00:41:19;;;;;;;9.05;2.95;;;7.60;99.90;;;;;;5067171;28;20135;-63
2020/12/21 00:43:47;;;;;;;11.73;3.08;;;7.70;99.90;;;;;;5067230;28;20076;-63
2020/12/21 00:46:14;;;;;;;12.05;2.60;;;7.70;99.90;;;;;;5066972;28;20103;-63
2020/12/21 00:48:41;;;;;;;12.38;2.90;;;7.70;99.90;;;;;;5066359;28;20272;-64
2020/12/21 00:51:08;;;;;;;9.80;2.53;;;7.70;99.90;;;;;;5066125;28;20052;-63
2020/12/21 00:53:35;;;;;;;9.32;2.45;;;7.60;99.90;;;;;;5068284;28;20378;-63
2020/12/21 00:56:02;;;;;;;7.47;2.13;;;7.60;99.90;;;;;;5065853;28;20591;-63
2020/12/21 00:58:32;;;;;;;8.80;2.17;;;7.70;99.90;;;;;;5068063;28;20076;-63
2020/12/21 01:00:59;;;;;;;7.45;2.22;;;7.70;99.90;;;;;;5066452;28;20078;-63
2020/12/21 01:03:25;;;;;;;9.35;2.65;;;7.70;99.90;;;;;;5066507;28;20062;-63
2020/12/21 01:05:54;;;;;;;9.35;2.45;;;7.70;99.90;;;;;;5066818;28;20438;-63
2020/12/21 01:08:20;;;;;;;8.35;2.13;;;7.70;99.90;;;;;;5066894;28;20548;-63
2020/12/21 01:10:47;;;;;;;7.82;2.20;;;7.70;99.90;;;;;;5066107;28;20493;-64
2020/12/21 01:13:13;;;;;;;7.15;2.13;;;7.70;99.90;;;;;;5064268;28;20149;-63
2020/12/21 01:15:41;;;;;;;15.23;2.83;;;7.60;99.90;;;;;;5066296;28;20517;-63
2020/12/21 01:18:08;;;;;;;9.15;2.60;;;7.60;99.90;;;;;;5066409;28;20052;-63
2020/12/21 01:20:35;;;;;;;11.52;2.60;;;7.60;99.90;;;;;;5067251;28;20052;-63
2020/12/21 01:23:02;;;;;;;6.95;2.08;;;7.60;99.90;;;;;;5066197;28;20087;-63
2020/12/21 01:25:28;;;;;;;10.82;2.92;;;7.60;99.90;;;;;;5065742;28;20059;-63
2020/12/21 01:27:55;;;;;;;7.57;2.28;;;7.60;99.90;;;;;;5066515;28;20045;-63
2020/12/21 01:30:22;;;;;;;7.55;2.33;;;7.60;99.90;;;;;;5065551;28;20052;-63
2020/12/21 01:32:49;;;;;;;6.40;2.10;;;7.70;99.90;;;;;;5066456;28;20128;-63
2020/12/21 01:35:16;;;;;;;7.95;2.35;;;7.80;99.90;;;;;;5065682;28;20139;-63
2020/12/21 01:37:43;;;;;;;9.48;2.58;;;7.90;99.90;;;;;;5067349;28;20755;-63
2020/12/21 01:40:10;;;;;;;7.00;2.70;;;7.90;99.90;;;;;;5065667;28;20048;-63
2020/12/21 01:42:37;;;;;;;7.22;2.03;;;8.00;99.90;;;;;;5065644;28;20139;-63
2020/12/21 01:45:04;;;;;;;5.25;2.05;;;8.00;99.90;;;;;;5064197;28;20139;-63
2020/12/21 01:47:31;;;;;;;7.68;2.20;;;7.90;99.90;;;;;;5065825;28;20087;-63
2020/12/21 01:49:59;;;;;;;10.50;2.40;;;7.90;99.90;;;;;;5065774;28;20463;-63
2020/12/21 01:52:25;;;;;;;7.90;1.92;;;7.80;99.90;;;;;;5064513;28;20425;-63
2020/12/21 01:54:52;;;;;;;6.72;2.30;;;7.80;99.90;;;;;;5066831;28;20087;-63
2020/12/21 01:57:18;;;;;;;9.25;2.65;;;7.80;99.90;;;;;;5065711;28;20109;-63
2020/12/21 01:59:45;;;;;;;10.95;2.63;;;7.80;99.90;;;;;;5066656;28;20126;-63
2020/12/21 02:02:12;;;;;;;7.22;2.35;;;7.80;99.90;;;;;;5066701;28;20504;-63
2020/12/21 02:04:39;;;;;;;11.25;2.83;;;7.70;99.90;;;;;;5064887;28;20389;-63
2020/12/21 02:07:07;;;;;;;9.02;2.22;;;7.70;99.90;;;;;;5065752;28;20064;-63
2020/12/21 02:09:34;;;;;;;4.50;1.95;;;7.60;99.90;;;;;;5065193;28;20076;-63
2020/12/21 02:12:03;;;;;;;6.63;2.28;;;7.70;99.90;;;;;;5064459;28;20187;-63
2020/12/21 02:14:30;;;;;;;8.98;2.30;;;7.70;99.90;;;;;;5065605;28;20052;-63
2020/12/21 02:16:56;;;;;;;7.25;2.40;;;7.70;99.90;;;;;;5065109;28;20600;-63
2020/12/21 02:19:23;;;;;;;6.57;3.10;;;7.70;99.90;;;;;;5064735;28;20489;-63
2020/12/21 02:21:50;;;;;;;9.60;2.47;;;7.70;99.90;;;;;;5064113;28;20080;-63
2020/12/21 02:24:17;;;;;;;6.78;2.03;;;7.90;99.90;;;;;;5065408;28;20083;-63
2020/12/21 02:26:43;;;;;;;9.82;1.90;;;7.90;99.90;;;;;;5063980;28;20126;-63
2020/12/21 02:29:10;;;;;;;7.13;2.00;;;7.90;99.90;;;;;;5065760;28;20139;-63
2020/12/21 02:31:37;;;;;;;8.13;2.28;;;7.90;99.90;;;;;;5065103;28;20060;-63
2020/12/21 02:34:03;;;;;;;11.07;2.25;;;7.90;99.90;;;;;;5064824;28;20098;-63
2020/12/21 02:36:30;;;;;;;7.35;2.25;;;7.70;99.90;;;;;;5063431;28;20080;-63
2020/12/21 02:38:57;;;;;;;10.20;2.60;;;7.70;99.90;;;;;;5063972;28;20076;-63
2020/12/21 02:41:23;;;;;;;7.57;1.95;;;7.70;99.90;;;;;;5065979;28;20137;-63
2020/12/21 02:43:50;;;;;;;11.63;1.92;;;7.60;99.90;;;;;;5066118;28;20048;-63
2020/12/21 02:46:17;;;;;;;6.55;1.83;;;7.60;99.90;;;;;;5065260;28;20497;-63
2020/12/21 02:48:46;;;;;;;8.68;2.20;;;7.60;99.90;;;;;;5064019;28;20091;-63
2020/12/21 02:51:15;;;;;;;8.18;2.40;;;7.60;99.90;;;;;;5065178;28;21045;-63
2020/12/21 02:53:42;;;;;;;7.70;2.50;;;7.50;99.90;;;;;;5063950;28;20055;-64
2020/12/21 02:56:10;;;;;;;4.45;1.60;;;7.50;99.90;;;;;;5064860;28;20048;-63
2020/12/21 02:58:38;;;;;;;5.97;1.60;;;7.50;99.90;;;;;;5063773;28;20083;-63
2020/12/21 03:01:04;;;;;;;9.93;2.22;;;7.60;99.90;;;;;;5065733;28;20072;-63
2020/12/21 03:03:33;;;;;;;8.88;2.47;;;7.50;99.90;;;;;;5064794;28;20060;-63
2020/12/21 03:06:00;;;;;;;5.18;1.80;;;7.50;99.90;;;;;;5063570;28;20764;-63
2020/12/21 03:08:26;;;;;;;5.13;1.60;;;7.50;99.90;;;;;;5066336;28;20139;-63
2020/12/21 03:10:53;;;;;;;8.98;2.20;;;7.50;99.90;;;;;;5065211;28;20056;-63
2020/12/21 03:13:25;;;;;;;10.98;2.50;;;7.50;99.90;;;;;;5064658;28;20143;-63
2020/12/21 03:15:52;;;;;;;5.90;1.75;;;7.50;99.90;;;;;;5064760;28;20037;-63
2020/12/21 03:18:18;;;;;;;7.03;1.80;;;7.50;99.90;;;;;;5064200;28;20068;-63
2020/12/21 03:20:45;;;;;;;8.65;1.75;;;7.50;99.90;;;;;;5065025;28;20481;-63
2020/12/21 03:23:11;;;;;;;10.00;1.90;;;7.50;99.90;;;;;;5064285;28;20087;-63
2020/12/21 03:25:38;;;;;;;7.70;1.75;;;7.60;99.90;;;;;;5063849;28;20037;-63
2020/12/21 03:28:04;;;;;;;8.68;1.80;;;7.60;99.90;;;;;;5065440;28;20083;-63
2020/12/21 03:30:34;;;;;;;5.28;1.77;;;7.70;99.90;;;;;;5064158;28;20466;-63
2020/12/21 03:33:00;;;;;;;;;;;7.70;99.90;;;;;;5064690;28;20052;-63
2020/12/21 03:35:27;;;;;;;7.28;1.92;;;7.70;99.90;;;;;;5064719;28;20042;-63
2020/12/21 03:37:54;;;;;;;8.52;1.92;;;7.70;99.90;;;;;;5065392;28;20079;-63
2020/12/21 03:40:20;;;;;;;6.43;1.80;;;7.60;99.90;;;;;;5064885;28;20101;-63
2020/12/21 03:42:47;;;;;;;8.20;2.47;;;7.60;99.90;;;;;;5064220;28;20056;-63
2020/12/21 03:45:13;;;;;;;7.70;1.98;;;7.70;99.90;;;;;;5064751;28;20447;-64
2020/12/21 03:47:41;;;;;;;7.82;2.05;;;7.70;99.90;;;;;;5065753;28;20083;-64
2020/12/21 03:50:07;;;;;;;7.57;1.67;;;7.80;99.90;;;;;;5063915;28;20052;-64
2020/12/21 03:52:34;;;;;;;10.57;2.00;;;7.70;99.90;;;;;;5063798;28;20084;-63
2020/12/21 03:55:03;;;;;;;7.85;2.78;;;7.80;99.90;;;;;;5063372;28;20049;-64
2020/12/21 03:57:29;;;;;;;8.23;2.17;;;7.90;99.90;;;;;;5064802;28;20053;-64
2020/12/21 03:59:56;;;;;;;6.35;1.67;;;7.80;99.90;;;;;;5063443;28;20052;-63
2020/12/21 04:02:23;;;;;;;7.40;2.10;;;7.70;99.90;;;;;;5063478;28;21515;-63
2020/12/21 04:04:50;;;;;;;9.90;1.88;;;7.70;99.90;;;;;;5063686;28;20500;-63
2020/12/21 04:07:17;;;;;;;5.85;1.60;;;7.50;99.90;;;;;;5064713;28;20179;-63
2020/12/21 04:09:43;;;;;;;4.63;1.60;;;7.50;99.90;;;;;;5066114;28;20059;-63
2020/12/21 04:12:10;;;;;;;5.25;1.70;;;7.60;99.90;;;;;;5067687;28;20410;-63
2020/12/21 04:14:36;;;;;;;7.55;2.65;;;7.70;99.90;;;;;;5067485;28;20048;-64
2020/12/21 04:17:03;;;;;;;8.90;1.60;;;7.60;99.90;;;;;;5066882;28;20060;-64
2020/12/21 04:19:30;;;;;;;12.65;1.88;;;7.60;99.90;;;;;;5068089;28;20480;-64
2020/12/21 04:21:57;;;;;;;8.00;1.88;;;7.50;99.90;;;;;;5068616;28;20581;-64
2020/12/21 04:24:24;;;;;;;6.57;1.58;;;7.60;99.90;;;;;;5068967;28;20131;-64
2020/12/21 04:26:50;;;;;;;5.38;1.60;;;7.50;99.90;;;;;;5067439;28;20044;-64
2020/12/21 04:29:17;;;;;;;6.80;2.20;;;7.50;99.90;;;;;;5066968;28;20135;-63
2020/12/21 04:31:43;;;;;;;5.90;1.80;;;7.50;99.90;;;;;;5067604;28;20094;-63
2020/12/21 04:34:10;;;;;;;5.80;1.73;;;7.40;99.90;;;;;;5066780;28;20091;-63
2020/12/21 04:36:36;;;;;;;6.95;2.40;;;7.40;99.90;;;;;;5067253;28;20044;-63
2020/12/21 04:39:04;;;;;;;7.10;1.58;;;7.40;99.90;;;;;;5067040;28;20048;-63
2020/12/21 04:41:33;;;;;;;7.90;2.05;;;7.40;99.90;;;;;;5066211;28;20060;-63
2020/12/21 04:44:00;;;;;;;5.57;1.80;;;7.40;99.90;;;;;;5066843;28;20179;-63
2020/12/21 04:46:28;;;;;;;9.90;2.28;;;7.40;99.90;;;;;;5066511;28;20508;-63
2020/12/21 04:48:58;;;;;;;5.57;1.50;;;7.40;99.90;;;;;;5067190;28;20083;-63
2020/12/21 04:51:33;;;;;;;5.75;1.60;;;7.40;99.90;;;;;;5068085;28;20135;-63
2020/12/21 04:54:00;;;;;;;9.77;1.75;;;7.40;99.90;;;;;;5066727;28;20058;-63
2020/12/21 04:56:28;;;;;;;10.13;2.08;;;7.40;99.90;;;;;;5065816;28;20059;-63
2020/12/21 04:58:55;;;;;;;4.18;1.60;;;7.40;99.90;;;;;;5066609;28;20135;-63
2020/12/21 05:01:22;;;;;;;6.97;1.65;;;7.40;99.90;;;;;;5066998;28;20094;-63
2020/12/21 05:03:51;;;;;;;6.72;2.00;;;7.40;99.90;;;;;;5067681;28;20044;-63
2020/12/21 05:06:18;;;;;;;5.75;1.52;;;7.30;99.90;;;;;;5066438;28;20758;-63
2020/12/21 05:08:45;;;;;;;6.55;2.10;;;7.30;99.90;;;;;;5066476;28;20087;-63
2020/12/21 05:11:14;;;;;;;5.25;1.40;;;7.30;99.90;;;;;;5065323;28;20520;-64
2020/12/21 05:13:42;;;;;;;4.00;1.33;;;7.30;99.90;;;;;;5065402;28;20064;-63
2020/12/21 05:16:08;;;;;;;7.32;1.73;;;7.40;99.90;;;;;;5066703;28;20139;-63
2020/12/21 05:18:36;;;;;;;10.20;1.80;;;7.40;99.90;;;;;;5067743;28;20133;-63
2020/12/21 05:21:05;;;;;;;6.82;1.50;;;7.40;99.90;;;;;;5065401;28;20094;-63
2020/12/21 05:23:32;;;;;;;5.70;1.90;;;7.20;99.90;;;;;;5066058;28;20063;-63
2020/12/21 05:26:00;;;;;;;8.45;1.75;;;7.10;99.90;;;;;;5066575;28;20123;-63
2020/12/21 05:28:29;;;;;;;4.95;1.50;;;7.20;99.90;;;;;;5066027;28;20477;-63
2020/12/21 05:30:58;;;;;;;7.85;2.00;;;7.20;99.90;;;;;;5065678;28;20275;-63
2020/12/21 05:33:25;;;;;;;5.37;1.77;;;7.10;99.90;;;;;;5066134;28;21994;-63
2020/12/21 05:35:54;;;;;;;5.18;1.33;;;7.20;99.90;;;;;;5065594;28;20571;-63
2020/12/21 05:38:27;;;;;;;5.70;2.50;;;7.20;99.90;;;;;;5066119;28;20147;-63
2020/12/21 05:41:06;;;;;;;7.55;1.60;;;7.20;99.90;;;;;;5065548;28;20106;-63
2020/12/21 05:43:33;;;;;;;8.48;1.90;;;7.20;99.90;;;;;;5065823;28;20198;-63
2020/12/21 05:46:06;;;;;;;5.57;1.60;;;7.20;99.90;;;;;;5065510;28;20048;-63
2020/12/21 05:48:34;;;;;;;3.85;1.27;;;7.10;99.90;;;;;;5065860;28;20084;-63
2020/12/21 05:51:05;;;;;;;5.70;1.60;;;7.10;99.90;;;;;;5064866;28;20207;-63
2020/12/21 05:53:40;;;;;;;6.85;1.60;;;7.20;99.90;;;;;;5064887;28;20139;-63
2020/12/21 05:56:07;;;;;;;5.40;1.70;;;7.10;99.90;;;;;;5065636;28;20473;-63
2020/12/21 05:58:34;;;;;;;4.95;1.58;;;7.10;99.90;;;;;;5064255;28;20454;-63
2020/12/21 06:01:03;;;;;;;10.70;1.83;;;7.00;99.90;;;;;;5066905;28;20139;-63
2020/12/21 06:03:52;;;;;;;3.90;1.35;;;7.10;99.90;;;;;;5064617;28;21458;-63
2020/12/21 06:06:20;;;;;;;6.25;1.75;;;7.10;99.90;;;;;;5061161;28;20078;-63
2020/12/21 06:08:48;;;;;;;6.63;1.95;;;7.20;99.90;;;;;;5064943;28;20053;-63
2020/12/21 06:11:20;;;;;;;4.55;1.90;;;7.10;99.90;;;;;;5063952;28;20056;-63
2020/12/21 06:13:55;;;;;;;6.70;1.30;;;7.20;99.90;;;;;;5065463;28;20049;-63
2020/12/21 06:16:22;;;;;;;8.07;1.67;;;7.20;99.90;;;;;;5064312;28;20044;-63
2020/12/21 06:19:08;;;;;;;4.55;1.75;;;7.10;99.90;;;;;;5066332;28;20125;-63
2020/12/21 06:21:36;;;;;;;9.23;1.70;;;7.30;99.90;;;;;;5065609;28;20493;-63
2020/12/21 06:24:03;;;;;;;5.40;1.50;;;7.30;99.90;;;;;;5064417;28;20044;-63
2020/12/21 06:26:38;;;;;;;5.38;1.50;;;7.30;99.90;;;;;;5064787;28;20084;-63
2020/12/21 06:29:08;;;;;;;6.18;1.90;;;7.30;99.90;;;;;;5065885;28;20087;-63
2020/12/21 06:31:39;;;;;;;7.28;2.22;;;7.30;99.90;;;;;;5065891;28;20498;-63
2020/12/21 06:34:09;;;;;;;4.45;1.63;;;7.40;99.90;;;;;;5062989;28;20052;-63
2020/12/21 06:36:36;;;;;;;5.75;1.50;;;7.30;99.90;;;;;;5064830;28;20643;-63
2020/12/21 06:39:04;;;;;;;5.00;1.60;;;7.40;99.90;;;;;;5065173;28;20052;-63
2020/12/21 06:41:31;;;;;;;7.35;1.48;;;7.40;99.90;;;;;;5063580;28;20684;-64
2020/12/21 06:44:02;;;;;;;6.38;2.22;;;7.40;99.90;;;;;;5064567;28;20119;-63
2020/12/21 06:46:30;;;;;;;6.82;2.05;;;7.40;99.90;;;;;;5066126;28;20052;-63
2020/12/21 06:49:09;;;;;;;7.43;1.88;;;7.40;99.90;;;;;;5063501;28;20052;-63
2020/12/21 06:51:37;;;;;;;7.40;1.97;;;7.40;99.90;;;;;;5065327;28;20052;-63
2020/12/21 06:54:05;;;;;;;6.63;2.22;;;7.50;99.90;;;;;;5064247;28;20583;-64
2020/12/21 06:56:31;;;;;;;9.50;2.78;;;7.50;99.90;;;;;;5064282;28;20612;-64
2020/12/21 06:58:59;;;;;;;6.03;1.90;;;7.40;99.90;;;;;;5063517;28;20090;-63
2020/12/21 07:01:27;;;;;;;7.45;1.60;;;7.40;99.90;;;;;;5064513;28;20165;-63
2020/12/21 07:03:54;;;;;;;5.10;2.03;;;7.30;99.90;;;;;;5064088;28;20083;-63
2020/12/21 07:06:22;;;;;;;6.45;1.60;;;7.30;99.90;;;;;;5064797;28;20055;-63
2020/12/21 07:08:49;;;;;;;8.43;1.98;;;7.30;99.90;;;;;;5063737;28;20091;-63
2020/12/21 07:11:20;;;;;;;9.35;2.22;;;7.30;99.90;;;;;;5064511;28;20056;-63
2020/12/21 07:13:48;;;;;;;6.70;1.92;;;7.20;99.90;;;;;;5062774;28;20140;-63
2020/12/21 07:16:17;;;;;;;5.60;2.17;;;7.20;99.90;;;;;;5063514;28;20500;-63
2020/12/21 07:18:45;;;;;;;5.47;2.40;;;7.20;99.90;;;;;;5064830;28;20075;-64
2020/12/21 07:21:12;;;;;;;7.90;2.20;;;7.10;99.90;;;;;;5063992;28;20572;-64
2020/12/21 07:23:40;;;;;;;3.42;1.60;;;7.20;99.90;;;;;;5063899;28;20040;-63
2020/12/21 07:26:07;;;;;;;6.22;1.95;;;7.20;99.90;;;;;;5063183;28;20468;-63
2020/12/21 07:28:34;;;;;;;5.68;2.35;;;7.10;99.90;;;;;;5065037;28;20044;-63
2020/12/21 07:31:08;;;;;;;8.02;1.85;;;7.20;99.90;;;;;;5063350;28;20049;-64
2020/12/21 07:33:36;;;;;;;6.25;2.15;;;7.20;99.90;;;;;;5063870;28;20084;-63
2020/12/21 07:36:05;;;;;;;11.43;2.83;;;7.10;99.90;;;;;;5064067;28;20532;-63
2020/12/21 07:38:32;;;;;;;9.23;2.42;;;7.20;99.90;;;;;;5064111;28;20045;-64
2020/12/21 07:41:00;;;;;;;4.57;2.00;;;7.10;99.90;;;;;;5065250;28;20059;-63
2020/12/21 07:43:31;;;;;;;7.30;2.53;;;7.10;99.90;;;;;;5066292;28;20386;-63
2020/12/21 07:46:03;;;;;;;9.80;2.65;;;7.20;99.90;;;;;;5068417;28;20183;-63
2020/12/21 07:48:33;;;;;;;7.80;2.80;;;7.20;99.90;;;;;;5068296;28;20072;-63
2020/12/21 07:51:03;;;;;;;6.68;2.17;;;7.10;99.90;;;;;;5067144;28;20336;-63
2020/12/21 07:53:38;;;;;;;;;;;7.10;99.90;;;;;;5067510;28;20080;-64
2020/12/21 07:56:05;;;;;;;9.82;2.53;;;7.20;99.90;;;;;;5067603;28;19954;-63
2020/12/21 07:58:35;;;;;;;6.20;2.22;;;7.20;99.90;;;;;;5066540;28;20629;-63
2020/12/21 08:01:03;;;;;;;7.25;2.10;;;7.20;99.90;;;;;;5067410;28;20683;-63
2020/12/21 08:03:31;;;;;;;6.82;2.25;;;7.20;99.90;;;;;;5070177;28;20131;-63
2020/12/21 08:06:08;;;;;;;8.80;2.03;;;7.10;99.90;;;;;;5067967;28;20061;-63
2020/12/21 08:08:34;;;;;;;6.93;2.25;;;7.30;99.90;;;;;;5066752;28;20090;-64
2020/12/21 08:11:02;;;;;;;8.15;2.47;;;7.30;99.90;;;;;;5067422;28;20094;-63
2020/12/21 08:13:30;;;;;;;7.72;2.83;;;7.30;99.90;;;;;;5067186;28;20048;-63
2020/12/21 08:16:07;;;;;;;6.95;2.13;;;7.30;99.90;;;;;;5067038;28;20448;-63
2020/12/21 08:18:37;;;;;;;13.23;3.10;;;7.40;99.90;;;;;;5066568;28;20086;-63
2020/12/21 08:21:04;;;;;;;4.80;2.22;;;7.50;99.90;;;;;;5067841;28;20063;-63
2020/12/21 08:23:32;;;;;;;7.25;2.88;;;7.50;99.90;;;;;;5066428;28;20049;-63
2020/12/21 08:25:59;;;;;;;10.00;2.50;;;7.60;99.90;;;;;;5067724;28;20083;-63
2020/12/21 08:28:32;;;;;;;5.72;2.40;;;7.70;99.90;;;;;;5067658;28;20087;-63
2020/12/21 08:31:10;;;;;;;7.18;2.15;;;7.70;99.90;;;;;;5067380;28;20080;-63
2020/12/21 08:33:37;;;;;;;7.47;1.80;;;7.70;99.90;;;;;;5066949;28;20051;-63
2020/12/21 08:36:17;;;;;;;7.97;2.10;;;7.70;99.90;;;;;;5066720;28;20848;-64
2020/12/21 08:38:43;;;;;;;;;;;7.80;99.90;;;;;;5068134;28;20071;-64
2020/12/21 08:41:13;;;;;;;8.05;2.20;;;7.70;99.90;;;;;;5066979;28;19925;-64
2020/12/21 08:43:41;;;;;;;9.25;2.47;;;7.80;99.90;;;;;;5065899;28;20639;-63
2020/12/21 08:46:08;;;;;;;7.10;2.30;;;7.80;99.90;;;;;;5067644;28;20041;-63
2020/12/21 08:48:39;;;;;;;7.18;2.33;;;7.90;99.90;;;;;;5065068;28;20139;-63
2020/12/21 08:51:06;;;;;;;5.47;2.13;;;8.20;99.90;;;;;;5063898;28;20471;-63
2020/12/21 08:53:33;;;;;;;6.60;1.90;;;8.20;99.90;;;;;;5065181;28;20044;-63
2020/12/21 08:56:00;;;;;;;7.55;2.10;;;8.00;99.90;;;;;;5064357;28;21439;-63
2020/12/21 08:58:26;;;;;;;5.43;1.65;;;8.20;99.90;;;;;;5064914;28;20041;-63
2020/12/21 09:00:54;;;;;;;9.23;2.00;;;8.20;99.90;;;;;;5066715;28;20132;-63
2020/12/21 09:03:20;;;;;;;4.60;1.85;;;8.30;99.90;;;;;;5065868;28;20084;-63
2020/12/21 09:05:47;;;;;;;6.18;1.80;;;8.40;99.90;;;;;;5062881;28;20080;-63
2020/12/21 09:08:14;;;;;;;6.53;1.77;;;8.30;99.90;;;;;;5064361;28;20052;-64
2020/12/21 09:10:41;;;;;;;6.38;1.80;;;8.30;99.90;;;;;;5065358;28;20477;-64
2020/12/21 09:13:08;;;;;;;4.93;1.73;;;8.20;99.90;;;;;;5065823;28;20128;-63
2020/12/21 09:15:35;;;;;;;7.03;2.20;;;8.20;99.90;;;;;;5066030;28;20076;-63
2020/12/21 09:18:03;;;;;;;6.00;2.58;;;8.20;99.90;;;;;;5066824;28;20099;-63
2020/12/21 09:20:30;;;;;;;5.97;1.60;;;8.30;99.90;;;;;;5066246;28;20087;-64
2020/12/21 09:22:56;;;;;;;5.45;1.92;;;8.20;99.90;;;;;;5066677;28;20516;-64
2020/12/21 09:25:23;;;;;;;8.85;1.77;;;8.50;99.90;;;;;;5067021;28;20091;-64
2020/12/21 09:27:50;;;;;;;9.60;2.65;;;8.50;99.90;;;;;;5066684;28;20102;-64
2020/12/21 09:30:16;;;;;;;7.68;2.00;;;8.50;99.90;;;;;;5065705;28;20086;-64
2020/12/21 09:32:43;;;;;;;6.38;1.52;;;8.50;99.90;;;;;;5064915;28;20457;-63
2020/12/21 09:35:11;;;;;;;4.38;1.70;;;8.40;99.90;;;;;;5065373;28;20084;-63
2020/12/21 09:37:38;;;;;;;7.80;2.08;;;8.50;99.90;;;;;;5065286;28;20056;-63
2020/12/21 09:40:04;;;;;;;4.50;1.90;;;8.40;99.90;;;;;;5064913;28;20044;-63
2020/12/21 09:42:31;;;;;;;4.32;1.70;;;8.60;99.90;;;;;;5064494;28;20139;-63
2020/12/21 09:44:58;;;;;;;7.35;1.80;;;8.50;99.90;;;;;;5065760;28;20142;-63
2020/12/21 09:47:24;;;;;;;7.03;1.80;;;8.70;99.90;;;;;;5065750;28;20494;-63
2020/12/21 09:49:51;;;;;;;8.02;2.17;;;8.60;99.90;;;;;;5065756;28;20052;-63
2020/12/21 09:52:18;;;;;;;5.05;1.58;;;8.60;99.90;;;;;;5066012;28;20095;-64
2020/12/21 09:54:44;;;;;;;5.90;1.63;;;8.70;99.90;;;;;;5065313;28;20055;-64
2020/12/21 09:57:11;;;;;;;5.40;1.50;;;8.60;99.90;;;;;;5065006;28;20121;-64
2020/12/21 09:59:38;;;;;;;5.38;1.60;;;8.90;99.90;;;;;;5065224;28;20110;-63
2020/12/21 10:02:07;;;;;;;3.28;1.40;;;8.90;99.90;;;;;;5065995;28;20053;-64
2020/12/21 10:04:34;;;;;;;4.45;1.48;;;8.90;99.90;;;;;;5065285;28;20481;-64
2020/12/21 10:07:01;;;;;;;7.55;2.08;;;9.20;99.90;;;;;;5062915;28;20068;-64
2020/12/21 10:09:32;;;;;;;4.25;1.65;;;9.10;99.90;;;;;;5064203;28;20142;-64
2020/12/21 10:11:58;;;;;;;10.70;1.83;;;9.10;99.90;;;;;;5064132;28;20040;-64
2020/12/21 10:14:27;;;;;;;3.38;1.48;;;9.40;99.90;;;;;;5065085;28;20187;-64
2020/12/21 10:16:54;;;;;;;4.90;1.80;;;9.30;99.90;;;;;;5064167;28;20222;-64
2020/12/21 10:19:23;;;;;;;6.30;1.75;;;9.10;99.90;;;;;;5064303;28;20075;-64
2020/12/21 10:21:50;;;;;;;4.30;1.23;;;9.20;99.90;;;;;;5065622;28;20483;-63
2020/12/21 10:24:16;;;;;;;5.63;1.48;;;9.20;99.90;;;;;;5064279;28;20052;-64
2020/12/21 10:26:44;;;;;;;7.13;2.17;;;9.30;99.90;;;;;;5064782;28;20139;-64
2020/12/21 10:29:10;;;;;;;8.02;2.17;;;9.20;99.90;;;;;;5064541;28;20417;-64
2020/12/21 10:31:37;;;;;;;6.30;1.80;;;9.40;99.90;;;;;;5064309;28;20056;-64
2020/12/21 10:34:04;;;;;;;5.13;2.22;;;9.40;99.90;;;;;;5064039;28;20107;-64
2020/12/21 10:36:30;;;;;;;6.18;2.53;;;9.60;99.90;;;;;;5064274;28;21308;-64
2020/12/21 10:38:57;;;;;;;7.30;1.58;;;9.70;99.90;;;;;;5065735;28;20366;-64
2020/12/21 10:41:24;;;;;;;5.18;1.73;;;9.80;99.90;;;;;;5064193;28;20485;-64
2020/12/21 10:43:51;;;;;;;6.90;1.85;;;10.00;99.90;;;;;;5066232;28;20084;-64
2020/12/21 10:46:21;;;;;;;5.60;2.17;;;9.80;99.90;;;;;;5063798;28;20048;-62
2020/12/21 10:48:51;;;;;;;5.13;2.10;;;9.70;99.90;;;;;;5063733;28;20091;-63
2020/12/21 10:51:25;;;;;;;6.00;1.90;;;9.80;99.90;;;;;;5064389;28;20437;-63
2020/12/21 10:53:52;;;;;;;8.00;2.08;;;10.00;99.90;;;;;;5063614;28;20059;-65
2020/12/21 10:56:18;;;;;;;6.97;2.30;;;10.00;99.90;;;;;;5064260;28;20048;-65
2020/12/21 10:58:45;;;;;;;6.38;2.08;;;10.10;99.90;;;;;;5065118;28;20044;-65
2020/12/21 11:01:14;;;;;;;4.35;2.40;;;10.20;99.90;;;;;;5063875;28;20063;-65
2020/12/21 11:03:41;;;;;;;4.07;2.00;;;10.40;99.90;;;;;;5063299;28;20147;-65
2020/12/21 11:06:07;;;;;;;5.93;2.00;;;10.50;99.90;;;;;;5064135;28;20076;-65
2020/12/21 11:08:34;;;;;;;4.05;2.85;;;10.40;99.90;;;;;;5064308;28;20060;-65
2020/12/21 11:11:01;;;;;;;5.88;2.13;;;10.20;99.90;;;;;;5063292;28;20052;-65
2020/12/21 11:13:27;;;;;;;9.00;2.70;;;10.40;99.90;;;;;;5063408;28;20121;-65
2020/12/21 11:15:54;;;;;;;8.30;3.22;;;10.40;99.90;;;;;;5064773;28;20060;-65
2020/12/21 11:18:22;;;;;;;4.30;2.17;;;10.30;99.90;;;;;;5067799;28;20055;-65
2020/12/21 11:20:48;;;;;;;6.90;1.90;;;10.40;99.90;;;;;;5070877;28;20548;-66
2020/12/21 11:23:15;;;;;;;5.57;2.33;;;10.50;99.90;;;;;;5070708;28;20094;-65
2020/12/21 11:25:41;;;;;;;4.57;2.42;;;10.70;99.90;;;;;;5070046;28;20044;-65
2020/12/21 11:28:08;;;;;;;5.63;2.30;;;10.80;99.90;;;;;;5070910;28;20528;-66
2020/12/21 11:30:35;;;;;;;7.38;2.40;;;10.90;99.90;;;;;;5070578;28;20087;-66
2020/12/21 11:33:01;;;;;;;5.78;2.35;;;11.00;99.90;;;;;;5070590;28;20095;-66
2020/12/21 11:35:30;;;;;;;6.68;2.03;;;11.10;99.90;;;;;;5069759;28;20056;-65
2020/12/21 11:37:56;;;;;;;5.90;1.90;;;11.10;99.90;;;;;;5070086;28;20750;-66
2020/12/21 11:40:23;;;;;;;4.25;1.95;;;11.10;99.90;;;;;;5070144;28;20507;-66
2020/12/21 11:42:50;;;;;;;4.18;1.73;;;11.10;99.90;;;;;;5070681;28;20040;-66
2020/12/21 11:45:17;;;;;;;4.22;2.05;;;10.90;99.90;;;;;;5069524;28;20060;-66
2020/12/21 11:47:43;;;;;;;4.25;1.80;;;10.90;99.90;;;;;;5070634;28;20478;-66
2020/12/21 11:50:10;;;;;;;6.30;1.83;;;10.80;99.90;;;;;;5069862;28;20553;-66
2020/12/21 11:52:38;;;;;;;3.85;1.80;;;10.50;99.90;;;;;;5070551;28;20052;-66
2020/12/21 11:55:05;;;;;;;5.32;2.08;;;10.50;99.90;;;;;;5072470;28;20473;-66
2020/12/21 11:57:31;;;;;;;4.20;2.20;;;10.40;99.90;;;;;;5071009;28;20056;-66
2020/12/21 11:59:58;;;;;;;4.88;2.05;;;10.50;99.90;;;;;;5070557;28;20080;-66
2020/12/21 12:02:25;;;;;;;3.53;1.95;;;10.70;99.90;;;;;;5070188;28;20083;-66
2020/12/21 12:04:51;;;;;;;3.83;2.22;;;10.60;99.90;;;;;;5070712;28;20471;-66
2020/12/21 12:07:18;;;;;;;7.00;2.45;;;10.70;99.90;;;;;;5068888;28;20047;-66
2020/12/21 12:09:45;;;;;;;2.65;1.60;;;10.80;99.90;;;;;;5070385;28;20088;-65
2020/12/21 12:12:12;;;;;;;3.30;1.80;;;10.90;99.90;;;;;;5069967;28;20068;-65
2020/12/21 12:14:38;;;;;;;4.32;1.73;;;10.80;99.90;;;;;;5070929;28;20063;-65
2020/12/21 12:17:05;;;;;;;9.82;4.75;;;10.90;99.90;;;;;;5070432;28;20041;-65
2020/12/21 12:19:32;;;;;;;3.90;2.20;;;11.00;99.90;;;;;;5071142;28;20500;-65
2020/12/21 12:21:58;;;;;;;3.70;1.80;;;10.80;99.90;;;;;;5070064;28;20071;-65
2020/12/21 12:24:27;;;;;;;3.97;2.08;;;10.80;99.90;;;;;;5070604;28;20445;-65
2020/12/21 12:26:55;;;;;;;3.50;1.80;;;10.70;99.90;;;;;;5071375;28;20412;-66
2020/12/21 12:29:22;;;;;;;5.57;1.92;;;10.70;99.90;;;;;;5068769;28;20143;-65
2020/12/21 12:31:49;;;;;;;3.90;1.83;;;10.80;99.90;;;;;;5067178;28;20049;-65
2020/12/21 12:34:15;;;;;;;4.72;1.75;;;10.70;99.90;;;;;;5066621;28;20064;-65
2020/12/21 12:36:43;;;;;;;5.78;1.70;;;10.60;99.90;;;;;;5066370;28;20063;-65
2020/12/21 12:39:10;;;;;;;4.22;1.65;;;10.70;99.90;;;;;;5067644;28;20048;-65
2020/12/21 12:41:39;;;;;;;4.40;1.83;;;10.70;99.90;;;;;;5068078;28;20072;-65
2020/12/21 12:44:07;;;;;;;6.00;2.40;;;10.60;99.90;;;;;;5067037;28;20542;-65
2020/12/21 12:46:34;;;;;;;2.20;1.52;;;10.60;99.90;;;;;;5065824;28;20110;-65
2020/12/21 12:49:02;;;;;;;4.22;2.10;;;10.50;99.90;;;;;;5065742;28;20099;-65
2020/12/21 12:51:31;;;;;;;5.82;1.77;;;10.50;99.90;;;;;;5067596;28;21655;-65
2020/12/21 12:53:57;;;;;;;5.22;2.03;;;10.50;99.90;;;;;;5066081;28;20485;-65
2020/12/21 12:56:24;;;;;;;4.30;1.80;;;10.70;99.90;;;;;;5066219;28;20045;-65
2020/12/21 12:58:51;;;;;;;4.53;1.90;;;10.60;99.90;;;;;;5067152;28;20063;-65